createdAt,value
2023-03-20T00:00:55.139Z,3.43
2023-03-20T00:01:57.399Z,3.10
2023-03-20T00:03:00.149Z,3.50
2023-03-20T00:04:03.443Z,3.47
2023-03-20T00:05:21.882Z,3.80
2023-03-20T00:06:26.471Z,3.60
2023-03-20T00:07:28.704Z,3.43
2023-03-20T00:08:32.381Z,3.10
2023-03-20T00:09:34.639Z,3.27
2023-03-20T00:10:45.786Z,3.03
2023-03-20T00:11:50.262Z,3.23
2023-03-20T00:12:52.682Z,3.20
2023-03-20T00:13:57.975Z,3.63
2023-03-20T00:15:15.161Z,3.40
2023-03-20T00:16:17.393Z,3.33
2023-03-20T00:17:21.274Z,3.20
2023-03-20T00:18:25.133Z,3.30
2023-03-20T00:19:32.232Z,3.10
2023-03-20T00:20:35.028Z,3.10
2023-03-20T00:21:37.365Z,3.50
2023-03-20T00:22:39.655Z,3.50
2023-03-20T00:23:42.597Z,3.00
2023-03-20T00:24:44.961Z,3.33
2023-03-20T00:25:47.410Z,2.90
2023-03-20T00:26:51.326Z,3.70
2023-03-20T00:27:53.617Z,3.20
2023-03-20T00:28:56.544Z,3.40
2023-03-20T00:29:59.979Z,3.70
2023-03-20T00:31:03.420Z,3.20
2023-03-20T00:32:06.061Z,3.37
2023-03-20T00:33:11.508Z,3.20
2023-03-20T00:34:16.432Z,3.40
2023-03-20T00:35:24.078Z,3.50
2023-03-20T00:36:26.885Z,3.10
2023-03-20T00:37:29.116Z,3.47
2023-03-20T00:38:33.984Z,3.17
2023-03-20T00:39:36.656Z,3.13
2023-03-20T00:40:38.878Z,3.17
2023-03-20T00:41:45.098Z,3.33
2023-03-20T00:42:51.553Z,3.27
2023-03-20T00:44:01.098Z,3.50
2023-03-20T00:45:03.628Z,3.17
2023-03-20T00:46:13.184Z,3.27
2023-03-20T00:47:21.471Z,3.30
2023-03-20T00:48:23.646Z,3.40
2023-03-20T00:49:29.558Z,3.23
2023-03-20T00:50:31.970Z,3.60
2023-03-20T00:51:34.152Z,3.30
2023-03-20T00:52:36.412Z,3.43
2023-03-20T00:53:38.676Z,3.10
2023-03-20T00:54:41.074Z,3.17
2023-03-20T00:55:43.377Z,3.33
2023-03-20T00:56:59.997Z,3.13
2023-03-20T00:58:04.033Z,3.50
2023-03-20T00:59:07.446Z,3.37
2023-03-20T01:00:43.704Z,3.17
2023-03-20T01:01:47.781Z,3.17
2023-03-20T01:02:52.284Z,3.10
2023-03-20T01:03:54.554Z,3.30
2023-03-20T01:04:57.727Z,3.20
2023-03-20T01:06:01.202Z,3.30
2023-03-20T01:07:04.628Z,3.30
2023-03-20T01:08:14.488Z,3.40
2023-03-20T01:09:17.243Z,3.40
2023-03-20T01:10:19.682Z,3.60
2023-03-20T01:11:24.251Z,3.43
2023-03-20T01:12:27.017Z,3.50
2023-03-20T01:13:31.729Z,3.30
2023-03-20T01:14:34.430Z,3.23
2023-03-20T01:15:37.399Z,3.33
2023-03-20T01:16:39.891Z,3.50
2023-03-20T01:17:42.157Z,3.40
2023-03-20T01:18:44.364Z,3.10
2023-03-20T01:19:47.223Z,3.60
2023-03-20T01:20:50.126Z,3.40
2023-03-20T01:21:52.451Z,3.30
2023-03-20T01:22:54.750Z,3.30
2023-03-20T01:23:58.640Z,3.30
2023-03-20T01:25:01.379Z,3.20
2023-03-20T01:26:04.554Z,3.40
2023-03-20T01:27:16.043Z,3.37
2023-03-20T01:28:22.983Z,3.03
2023-03-20T01:29:30.494Z,3.20
2023-03-20T01:30:34.580Z,3.40
2023-03-20T01:31:38.783Z,3.20
2023-03-20T01:32:42.161Z,2.90
2023-03-20T01:33:45.458Z,3.07
2023-03-20T01:34:48.005Z,3.47
2023-03-20T01:35:51.739Z,3.53
2023-03-20T01:36:57.189Z,3.40
2023-03-20T01:37:59.504Z,3.63
2023-03-20T01:39:01.866Z,3.30
2023-03-20T01:40:04.834Z,3.20
2023-03-20T01:41:17.145Z,3.10
2023-03-20T01:42:20.414Z,3.40
2023-03-20T01:43:25.705Z,3.37
2023-03-20T01:44:34.290Z,3.20
2023-03-20T01:45:39.543Z,3.40
2023-03-20T01:46:42.272Z,3.50
2023-03-20T01:47:53.331Z,3.23
2023-03-20T01:49:08.126Z,3.37
2023-03-20T01:50:19.910Z,3.70
2023-03-20T01:51:28.862Z,3.27
2023-03-20T01:52:34.925Z,3.10
2023-03-20T01:53:37.390Z,3.40
2023-03-20T01:54:40.004Z,3.30
2023-03-20T01:55:51.851Z,3.53
2023-03-20T01:57:00.918Z,3.13
2023-03-20T01:58:09.778Z,3.40
2023-03-20T01:59:21.399Z,3.23
2023-03-20T02:00:24.055Z,3.80
2023-03-20T02:01:28.070Z,3.30
2023-03-20T02:02:31.926Z,3.40
2023-03-20T02:03:34.468Z,3.30
2023-03-20T02:04:47.167Z,3.40
2023-03-20T02:05:51.918Z,3.20
2023-03-20T02:06:54.990Z,3.20
2023-03-20T02:08:30.862Z,3.23
2023-03-20T02:09:37.808Z,3.33
2023-03-20T02:10:46.523Z,3.40
2023-03-20T02:11:56.374Z,3.17
2023-03-20T02:13:00.070Z,3.23
2023-03-20T02:14:08.699Z,3.10
2023-03-20T02:15:19.538Z,3.30
2023-03-20T02:16:44.822Z,3.13
2023-03-20T02:17:58.928Z,3.40
2023-03-20T02:19:01.818Z,2.90
2023-03-20T02:20:28.942Z,3.43
2023-03-20T02:21:46.171Z,3.30
2023-03-20T02:23:10.132Z,3.00
2023-03-20T02:24:49.873Z,3.23
2023-03-20T02:26:12.187Z,3.00
2023-03-20T02:27:33.204Z,3.20
2023-03-20T02:28:50.314Z,3.30
2023-03-20T02:30:25.063Z,3.10
2023-03-20T02:32:05.563Z,3.20
2023-03-20T02:33:23.227Z,3.00
2023-03-20T02:35:02.960Z,2.77
2023-03-20T02:36:37.092Z,3.07
2023-03-20T02:37:54.613Z,3.00
2023-03-20T02:39:35.159Z,2.70
2023-03-20T02:40:48.362Z,2.90
2023-03-20T02:42:14.799Z,2.63
2023-03-20T02:43:53.470Z,2.90
2023-03-20T02:45:08.352Z,2.87
2023-03-20T02:46:45.331Z,2.90
2023-03-20T02:48:21.145Z,2.97
2023-03-20T02:49:42.993Z,2.90
2023-03-20T02:51:01.001Z,2.87
2023-03-20T02:52:20.246Z,2.90
2023-03-20T02:53:47.562Z,2.93
2023-03-20T02:55:08.191Z,3.00
2023-03-20T02:56:17.778Z,2.90
2023-03-20T02:57:28.120Z,2.70
2023-03-20T02:58:51.228Z,2.80
2023-03-20T03:00:10.281Z,2.70
2023-03-20T03:01:28.233Z,2.70
2023-03-20T03:02:39.456Z,2.60
2023-03-20T03:03:50.705Z,2.70
2023-03-20T03:05:00.403Z,3.03
2023-03-20T03:06:09.340Z,2.70
2023-03-20T03:07:14.312Z,3.03
2023-03-20T03:08:20.799Z,2.57
2023-03-20T03:09:29.498Z,2.60
2023-03-20T03:10:57.607Z,2.60
2023-03-20T03:12:27.530Z,2.80
2023-03-20T03:13:33.763Z,2.60
2023-03-20T03:14:44.290Z,2.60
2023-03-20T03:15:54.745Z,2.50
2023-03-20T03:17:02.376Z,2.90
2023-03-20T03:18:07.941Z,2.30
2023-03-20T03:19:18.387Z,2.87
2023-03-20T03:20:26.206Z,2.40
2023-03-20T03:21:30.548Z,2.90
2023-03-20T03:22:34.618Z,2.57
2023-03-20T03:23:44.879Z,2.70
2023-03-20T03:24:52.419Z,2.70
2023-03-20T03:25:59.088Z,2.93
2023-03-20T03:27:10.693Z,2.63
2023-03-20T03:28:22.135Z,2.43
2023-03-20T03:29:31.539Z,2.50
2023-03-20T03:30:39.696Z,2.53
2023-03-20T03:31:43.340Z,2.67
2023-03-20T03:33:01.879Z,2.40
2023-03-20T03:34:04.633Z,2.57
2023-03-20T03:35:11.946Z,2.80
2023-03-20T03:36:25.552Z,2.47
2023-03-20T03:37:45.829Z,2.50
2023-03-20T03:39:10.766Z,2.47
2023-03-20T03:40:37.946Z,2.40
2023-03-20T03:41:46.043Z,2.70
2023-03-20T03:43:17.609Z,2.70
2023-03-20T03:44:26.376Z,2.43
2023-03-20T03:45:34.079Z,2.87
2023-03-20T03:46:49.959Z,2.80
2023-03-20T03:48:03.228Z,2.53
2023-03-20T03:49:11.775Z,2.50
2023-03-20T03:50:20.620Z,2.70
2023-03-20T03:51:26.695Z,2.90
2023-03-20T03:52:39.329Z,2.60
2023-03-20T03:53:49.253Z,2.60
2023-03-20T03:54:57.292Z,2.70
2023-03-20T03:56:24.124Z,2.40
2023-03-20T03:57:37.284Z,2.77
2023-03-20T03:58:45.538Z,2.70
2023-03-20T03:59:51.774Z,2.50
2023-03-20T04:00:56.317Z,2.70
2023-03-20T04:01:59.902Z,2.73
2023-03-20T04:03:06.309Z,2.50
2023-03-20T04:04:10.039Z,2.73
2023-03-20T04:05:16.045Z,2.53
2023-03-20T04:06:19.270Z,2.70
2023-03-20T04:07:21.715Z,3.00
2023-03-20T04:08:24.482Z,2.83
2023-03-20T04:09:27.090Z,2.63
2023-03-20T04:10:29.418Z,2.90
2023-03-20T04:11:31.736Z,2.90
2023-03-20T04:12:36.086Z,2.83
2023-03-20T04:13:38.301Z,2.70
2023-03-20T04:14:40.709Z,2.70
2023-03-20T04:15:44.462Z,2.50
2023-03-20T04:16:48.229Z,2.53
2023-03-20T04:17:50.845Z,3.20
2023-03-20T04:18:54.034Z,3.33
2023-03-20T04:19:57.080Z,2.67
2023-03-20T04:21:01.727Z,3.03
2023-03-20T04:22:03.911Z,3.03
2023-03-20T04:23:06.427Z,3.27
2023-03-20T04:24:08.865Z,3.43
2023-03-20T04:25:18.256Z,3.73
2023-03-20T04:26:24.965Z,3.80
2023-03-20T04:27:27.594Z,3.77
2023-03-20T04:28:30.037Z,3.90
2023-03-20T04:29:39.476Z,3.60
2023-03-20T04:31:02.506Z,3.50
2023-03-20T04:32:27.326Z,4.00
2023-03-20T04:33:44.172Z,3.87
2023-03-20T04:34:57.574Z,3.67
2023-03-20T04:36:19.341Z,3.67
2023-03-20T04:37:21.609Z,3.63
2023-03-20T04:38:31.895Z,4.07
2023-03-20T04:39:36.905Z,3.87
2023-03-20T04:40:40.881Z,3.70
2023-03-20T04:41:45.277Z,3.73
2023-03-20T04:42:47.544Z,3.70
2023-03-20T04:43:49.790Z,3.40
2023-03-20T04:44:52.182Z,3.47
2023-03-20T04:45:54.924Z,3.57
2023-03-20T04:46:58.049Z,3.70
2023-03-20T04:48:01.057Z,3.50
2023-03-20T04:49:03.882Z,3.67
2023-03-20T04:50:07.370Z,3.33
2023-03-20T04:51:09.786Z,3.23
2023-03-20T04:52:20.701Z,3.23
2023-03-20T04:53:24.369Z,3.07
2023-03-20T04:54:28.469Z,3.60
2023-03-20T04:55:30.869Z,3.23
2023-03-20T04:56:33.122Z,3.27
2023-03-20T04:57:55.442Z,3.20
2023-03-20T04:58:59.954Z,3.27
2023-03-20T05:00:02.521Z,3.10
2023-03-20T05:01:05.758Z,3.17
2023-03-20T05:02:08.086Z,2.90
2023-03-20T05:03:10.383Z,3.33
2023-03-20T05:04:12.735Z,2.90
2023-03-20T05:05:15.099Z,3.03
2023-03-20T05:06:18.085Z,2.90
2023-03-20T05:07:21.923Z,3.20
2023-03-20T05:08:33.476Z,2.83
2023-03-20T05:09:36.586Z,3.07
2023-03-20T05:10:40.681Z,3.00
2023-03-20T05:12:16.036Z,2.90
2023-03-20T05:13:35.461Z,2.93
2023-03-20T05:14:56.900Z,3.00
2023-03-20T05:16:14.562Z,3.03
2023-03-20T05:17:40.942Z,2.90
2023-03-20T05:19:02.748Z,2.80
2023-03-20T05:20:27.725Z,2.90
2023-03-20T05:21:37.475Z,2.67
2023-03-20T05:23:06.350Z,2.70
2023-03-20T05:24:29.263Z,2.60
2023-03-20T05:26:03.602Z,2.90
2023-03-20T05:27:24.532Z,2.63
2023-03-20T05:28:39.203Z,3.00
2023-03-20T05:29:47.572Z,2.90
2023-03-20T05:30:56.395Z,2.77
2023-03-20T05:31:58.665Z,2.60
2023-03-20T05:33:08.633Z,2.60
2023-03-20T05:34:28.969Z,2.80
2023-03-20T05:35:47.565Z,2.67
2023-03-20T05:37:06.946Z,2.63
2023-03-20T05:38:28.023Z,2.70
2023-03-20T05:39:50.188Z,2.57
2023-03-20T05:41:16.084Z,2.87
2023-03-20T05:42:47.464Z,2.50
2023-03-20T05:44:02.945Z,2.80
2023-03-20T05:45:28.530Z,2.47
2023-03-20T05:46:46.767Z,2.77
2023-03-20T05:48:27.656Z,2.47
2023-03-20T05:49:48.331Z,2.70
2023-03-20T05:51:00.535Z,2.87
2023-03-20T05:52:32.076Z,2.60
2023-03-20T05:53:41.455Z,2.70
2023-03-20T05:55:07.684Z,2.40
2023-03-20T05:56:15.639Z,3.00
2023-03-20T05:57:26.029Z,2.80
2023-03-20T05:58:28.179Z,2.53
2023-03-20T05:59:39.139Z,2.83
2023-03-20T06:01:16.479Z,2.60
2023-03-20T06:02:37.910Z,2.73
2023-03-20T06:03:54.838Z,2.73
2023-03-20T06:05:18.560Z,2.70
2023-03-20T06:06:25.816Z,2.60
2023-03-20T06:07:29.803Z,2.70
2023-03-20T06:08:36.786Z,2.43
2023-03-20T06:09:38.974Z,2.50
2023-03-20T06:10:45.671Z,2.70
2023-03-20T06:11:47.962Z,2.80
2023-03-20T06:12:54.320Z,2.80
2023-03-20T06:14:00.421Z,2.80
2023-03-20T06:15:12.452Z,2.60
2023-03-20T06:16:19.039Z,2.57
2023-03-20T06:17:23.992Z,2.80
2023-03-20T06:18:32.541Z,3.03
2023-03-20T06:19:34.731Z,3.10
2023-03-20T06:20:36.948Z,2.70
2023-03-20T06:21:40.884Z,2.70
2023-03-20T06:22:47.342Z,3.00
2023-03-20T06:23:52.088Z,2.90
2023-03-20T06:24:57.797Z,3.00
2023-03-20T06:26:06.845Z,2.87
2023-03-20T06:27:21.559Z,2.73
2023-03-20T06:28:24.700Z,2.90
2023-03-20T06:29:36.677Z,2.90
2023-03-20T06:30:53.622Z,2.93
2023-03-20T06:31:57.089Z,2.80
2023-03-20T06:33:06.233Z,2.80
2023-03-20T06:34:14.437Z,3.03
2023-03-20T06:35:21.310Z,2.80
2023-03-20T06:36:26.494Z,2.90
2023-03-20T06:37:36.638Z,2.80
2023-03-20T06:38:43.844Z,3.00
2023-03-20T06:39:50.196Z,2.60
2023-03-20T06:40:52.990Z,2.80
2023-03-20T06:41:59.322Z,2.70
2023-03-20T06:43:01.865Z,2.80
2023-03-20T06:44:20.496Z,3.00
2023-03-20T06:45:41.779Z,2.80
2023-03-20T06:46:53.397Z,2.77
2023-03-20T06:47:56.018Z,2.70
2023-03-20T06:48:58.321Z,2.80
2023-03-20T06:50:00.683Z,2.80
2023-03-20T06:51:03.054Z,2.90
2023-03-20T06:52:20.200Z,2.70
2023-03-20T06:53:31.579Z,2.70
2023-03-20T06:54:41.687Z,2.97
2023-03-20T06:55:49.798Z,3.00
2023-03-20T06:56:52.545Z,2.83
2023-03-20T06:57:56.902Z,2.77
2023-03-20T06:58:59.745Z,3.00
2023-03-20T07:00:04.340Z,2.90
2023-03-20T07:01:15.943Z,2.83
2023-03-20T07:02:20.348Z,2.90
2023-03-20T07:03:23.265Z,2.80
2023-03-20T07:04:28.822Z,2.72
2023-03-20T07:05:35.816Z,2.72
2023-03-20T07:06:43.004Z,2.95
2023-03-20T07:07:46.068Z,2.95
2023-03-20T07:08:48.962Z,2.75
2023-03-20T07:09:52.207Z,2.85
2023-03-20T07:10:57.318Z,2.88
2023-03-20T07:12:00.396Z,2.78
2023-03-20T07:13:03.364Z,2.80
2023-03-20T07:14:06.251Z,3.05
2023-03-20T07:15:22.197Z,2.72
2023-03-20T07:16:25.168Z,2.58
2023-03-20T07:17:27.745Z,2.80
2023-03-20T07:18:30.292Z,2.72
2023-03-20T07:19:34.580Z,2.67
2023-03-20T07:20:38.939Z,2.70
2023-03-20T07:21:43.173Z,2.85
2023-03-20T07:22:46.866Z,2.90
2023-03-20T07:23:54.313Z,3.03
2023-03-20T07:24:57.163Z,3.15
2023-03-20T07:26:00.616Z,3.13
2023-03-20T07:27:02.886Z,2.80
2023-03-20T07:28:07.957Z,3.30
2023-03-20T07:29:12.072Z,3.03
2023-03-20T07:30:15.959Z,3.00
2023-03-20T07:31:21.305Z,3.10
2023-03-20T07:32:26.960Z,3.15
2023-03-20T07:33:30.085Z,3.33
2023-03-20T07:34:34.347Z,3.28
2023-03-20T07:35:39.676Z,3.00
2023-03-20T07:36:42.629Z,3.22
2023-03-20T07:37:45.843Z,3.15
2023-03-20T07:38:48.757Z,3.20
2023-03-20T07:39:50.910Z,2.75
2023-03-20T07:41:07.797Z,2.80
2023-03-20T07:42:13.941Z,3.10
2023-03-20T07:43:27.522Z,3.10
2023-03-20T07:44:36.001Z,2.70
2023-03-20T07:45:44.669Z,2.80
2023-03-20T07:46:47.498Z,2.80
2023-03-20T07:47:50.902Z,2.90
2023-03-20T07:48:54.243Z,2.72
2023-03-20T07:49:56.930Z,2.90
2023-03-20T07:50:59.159Z,2.83
2023-03-20T07:52:01.985Z,2.90
2023-03-20T07:53:05.785Z,2.90
2023-03-20T07:54:08.037Z,3.00
2023-03-20T07:55:12.448Z,2.95
2023-03-20T07:56:14.732Z,3.05
2023-03-20T07:57:19.156Z,2.80
2023-03-20T07:58:21.987Z,3.05
2023-03-20T07:59:24.303Z,3.22
2023-03-20T08:00:28.193Z,2.92
2023-03-20T08:01:30.628Z,2.90
2023-03-20T08:02:34.762Z,2.95
2023-03-20T08:03:38.826Z,3.20
2023-03-20T08:04:41.527Z,2.78
2023-03-20T08:05:45.858Z,2.80
2023-03-20T08:06:49.955Z,3.30
2023-03-20T08:07:52.354Z,2.88
2023-03-20T08:08:55.027Z,2.85
2023-03-20T08:09:57.198Z,2.75
2023-03-20T08:10:59.418Z,2.78
2023-03-20T08:12:01.986Z,2.92
2023-03-20T08:13:05.118Z,2.72
2023-03-20T08:14:07.425Z,2.75
2023-03-20T08:15:10.059Z,3.17
2023-03-20T08:16:12.384Z,2.90
2023-03-20T08:17:18.027Z,3.10
2023-03-20T08:18:22.579Z,3.10
2023-03-20T08:19:24.764Z,3.00
2023-03-20T08:20:27.299Z,2.83
2023-03-20T08:21:31.105Z,3.10
2023-03-20T08:22:33.346Z,3.00
2023-03-20T08:23:35.582Z,2.90
2023-03-20T08:24:37.800Z,3.42
2023-03-20T08:25:41.358Z,3.20
2023-03-20T08:26:44.411Z,3.10
2023-03-20T08:27:48.944Z,3.15
2023-03-20T08:28:52.472Z,3.28
2023-03-20T08:29:54.982Z,3.65
2023-03-20T08:30:57.336Z,3.35
2023-03-20T08:31:59.635Z,3.67
2023-03-20T08:33:02.323Z,3.92
2023-03-20T08:34:04.572Z,3.90
2023-03-20T08:35:16.322Z,4.03
2023-03-20T08:36:25.162Z,4.38
2023-03-20T08:37:28.209Z,4.82
2023-03-20T08:38:30.470Z,4.97
2023-03-20T08:39:33.419Z,4.88
2023-03-20T08:40:35.749Z,4.72
2023-03-20T08:41:39.184Z,4.95
2023-03-20T08:42:41.727Z,5.00
2023-03-20T08:43:43.959Z,5.38
2023-03-20T08:44:46.141Z,5.03
2023-03-20T08:45:48.434Z,5.40
2023-03-20T08:46:50.655Z,5.45
2023-03-20T08:47:55.192Z,5.53
2023-03-20T08:48:58.995Z,5.75
2023-03-20T08:50:03.153Z,5.90
2023-03-20T08:51:06.450Z,5.38
2023-03-20T08:52:08.842Z,5.90
2023-03-20T08:53:12.468Z,5.80
2023-03-20T08:54:16.398Z,5.55
2023-03-20T08:55:20.020Z,6.00
2023-03-20T08:56:22.724Z,5.97
2023-03-20T08:57:25.023Z,7.53
2023-03-20T08:58:27.749Z,8.93
2023-03-20T08:59:29.985Z,9.57
2023-03-20T09:00:32.396Z,9.27
2023-03-20T09:01:48.185Z,8.77
2023-03-20T09:02:51.957Z,9.40
2023-03-20T09:03:54.324Z,8.95
2023-03-20T09:04:57.211Z,8.57
2023-03-20T09:05:59.641Z,8.75
2023-03-20T09:07:03.204Z,7.88
2023-03-20T09:08:05.517Z,8.85
2023-03-20T09:09:08.511Z,8.68
2023-03-20T09:10:12.122Z,8.85
2023-03-20T09:11:14.345Z,8.65
2023-03-20T09:12:16.968Z,8.15
2023-03-20T09:13:27.503Z,9.32
2023-03-20T09:14:30.194Z,8.73
2023-03-20T09:15:32.934Z,8.65
2023-03-20T09:16:35.517Z,9.10
2023-03-20T09:17:37.772Z,9.80
2023-03-20T09:18:41.139Z,10.20
2023-03-20T09:19:45.925Z,9.93
2023-03-20T09:20:48.665Z,10.43
2023-03-20T09:21:50.995Z,9.73
2023-03-20T09:22:53.270Z,9.82
2023-03-20T09:23:55.499Z,8.95
2023-03-20T09:24:57.799Z,9.32
2023-03-20T09:26:00.394Z,9.93
2023-03-20T09:27:03.786Z,9.48
2023-03-20T09:28:06.764Z,9.63
2023-03-20T09:29:10.485Z,9.75
2023-03-20T09:30:13.353Z,10.18
2023-03-20T09:31:15.640Z,10.32
2023-03-20T09:32:17.913Z,11.45
2023-03-20T09:33:20.185Z,12.18
2023-03-20T09:34:22.684Z,12.75
2023-03-20T09:35:24.986Z,13.63
2023-03-20T09:36:27.382Z,14.40
2023-03-20T09:37:29.695Z,15.68
2023-03-20T09:38:32.043Z,14.30
2023-03-20T09:39:39.534Z,14.68
2023-03-20T09:40:49.840Z,14.77
2023-03-20T09:41:57.575Z,15.10
2023-03-20T09:43:19.915Z,15.77
2023-03-20T09:45:03.794Z,16.55
2023-03-20T09:46:17.340Z,15.40
2023-03-20T09:47:48.446Z,14.10
2023-03-20T09:49:07.750Z,14.27
2023-03-20T09:50:22.347Z,14.60
2023-03-20T09:51:31.939Z,14.68
2023-03-20T09:52:51.671Z,14.73
2023-03-20T09:54:01.229Z,15.18
2023-03-20T09:55:14.039Z,14.38
2023-03-20T09:56:23.429Z,14.23
2023-03-20T09:57:27.393Z,14.23
2023-03-20T09:58:40.184Z,13.82
2023-03-20T09:59:42.409Z,13.00
2023-03-20T10:00:47.454Z,14.27
2023-03-20T10:01:53.262Z,13.52
2023-03-20T10:03:04.089Z,13.52
2023-03-20T10:04:11.447Z,13.40
2023-03-20T10:05:27.236Z,13.30
2023-03-20T10:06:29.876Z,14.05
2023-03-20T10:07:32.047Z,13.05
2023-03-20T10:08:38.215Z,13.27
2023-03-20T10:09:40.567Z,13.40
2023-03-20T10:11:11.276Z,13.50
2023-03-20T10:12:25.901Z,12.85
2023-03-20T10:13:45.734Z,13.02
2023-03-20T10:15:13.892Z,12.60
2023-03-20T10:16:49.791Z,12.75
2023-03-20T10:18:21.750Z,11.70
2023-03-20T10:19:37.602Z,12.45
2023-03-20T10:20:51.031Z,12.70
2023-03-20T10:22:06.415Z,12.52
2023-03-20T10:23:26.064Z,12.70
2023-03-20T10:24:57.681Z,11.95
2023-03-20T10:26:06.509Z,12.90
2023-03-20T10:27:26.872Z,12.80
2023-03-20T10:28:57.705Z,12.30
2023-03-20T10:30:18.878Z,11.95
2023-03-20T10:31:53.426Z,12.98
2023-03-20T10:33:19.406Z,12.77
2023-03-20T10:34:52.636Z,12.38
2023-03-20T10:36:25.373Z,12.45
2023-03-20T10:37:52.594Z,12.32
2023-03-20T10:39:18.365Z,12.23
2023-03-20T10:40:36.877Z,11.77
2023-03-20T10:41:46.081Z,12.40
2023-03-20T10:42:49.425Z,12.10
2023-03-20T10:43:54.073Z,11.63
2023-03-20T10:45:13.287Z,11.63
2023-03-20T10:46:22.425Z,11.48
2023-03-20T10:47:29.173Z,11.18
2023-03-20T10:48:44.772Z,10.85
2023-03-20T10:49:53.732Z,10.98
2023-03-20T10:50:59.483Z,11.48
2023-03-20T10:52:07.543Z,11.13
2023-03-20T10:53:25.508Z,10.70
2023-03-20T10:54:35.771Z,10.57
2023-03-20T10:55:43.483Z,11.07
2023-03-20T10:56:49.915Z,11.20
2023-03-20T10:57:57.741Z,10.75
2023-03-20T10:59:08.973Z,10.55
2023-03-20T11:00:20.163Z,10.32
2023-03-20T11:01:23.351Z,11.15
2023-03-20T11:02:30.287Z,10.10
2023-03-20T11:03:34.395Z,10.57
2023-03-20T11:04:36.768Z,10.00
2023-03-20T11:05:39.820Z,10.35
2023-03-20T11:06:49.785Z,10.25
2023-03-20T11:08:03.580Z,11.10
2023-03-20T11:09:17.861Z,10.95
2023-03-20T11:10:20.302Z,11.48
2023-03-20T11:11:28.271Z,11.48
2023-03-20T11:12:35.471Z,11.20
2023-03-20T11:13:43.343Z,11.50
2023-03-20T11:14:45.939Z,11.57
2023-03-20T11:15:48.727Z,11.88
2023-03-20T11:16:56.811Z,11.07
2023-03-20T11:18:01.407Z,11.25
2023-03-20T11:19:09.081Z,11.48
2023-03-20T11:20:14.324Z,11.60
2023-03-20T11:21:28.140Z,11.20
2023-03-20T11:22:31.373Z,11.77
2023-03-20T11:23:35.124Z,12.07
2023-03-20T11:24:42.215Z,11.98
2023-03-20T11:25:52.680Z,12.18
2023-03-20T11:27:07.727Z,11.93
2023-03-20T11:28:31.202Z,11.80
2023-03-20T11:29:36.015Z,13.38
2023-03-20T11:30:45.963Z,12.38
2023-03-20T11:32:34.052Z,12.20
2023-03-20T11:33:39.283Z,12.18
2023-03-20T11:34:43.563Z,12.80
2023-03-20T11:35:47.635Z,12.98
2023-03-20T11:37:09.249Z,13.70
2023-03-20T11:38:19.619Z,14.35
2023-03-20T11:39:32.576Z,13.07
2023-03-20T11:40:35.455Z,14.27
2023-03-20T11:41:47.630Z,14.25
2023-03-20T11:42:57.996Z,14.35
2023-03-20T11:44:00.442Z,14.73
2023-03-20T11:45:17.137Z,14.40
2023-03-20T11:46:25.621Z,15.55
2023-03-20T11:47:31.782Z,15.43
2023-03-20T11:49:10.615Z,14.75
2023-03-20T11:50:35.557Z,14.95
2023-03-20T11:51:38.379Z,14.57
2023-03-20T11:52:41.039Z,15.07
2023-03-20T11:53:49.022Z,15.32
2023-03-20T11:54:54.700Z,15.50
2023-03-20T11:56:15.593Z,15.45
2023-03-20T11:57:34.922Z,16.23
2023-03-20T11:58:48.207Z,16.13
2023-03-20T11:59:50.529Z,14.88
2023-03-20T12:00:55.236Z,15.75
2023-03-20T12:01:58.553Z,14.52
2023-03-20T12:03:02.967Z,15.32
2023-03-20T12:04:11.562Z,15.45
2023-03-20T12:05:36.588Z,16.42
2023-03-20T12:06:48.366Z,16.02
2023-03-20T12:07:53.972Z,15.05
2023-03-20T12:09:07.307Z,15.05
2023-03-20T12:10:15.085Z,15.50
2023-03-20T12:11:46.712Z,15.55
2023-03-20T12:12:59.452Z,16.40
2023-03-20T12:14:05.396Z,16.17
2023-03-20T12:15:13.396Z,15.70
2023-03-20T12:16:20.757Z,16.65
2023-03-20T12:17:33.848Z,16.27
2023-03-20T12:18:38.732Z,16.80
2023-03-20T12:19:42.958Z,16.48
2023-03-20T12:21:11.242Z,17.70
2023-03-20T12:22:37.902Z,16.88
2023-03-20T12:23:51.589Z,16.35
2023-03-20T12:25:12.547Z,17.48
2023-03-20T12:26:22.869Z,16.48
2023-03-20T12:27:33.523Z,17.52
2023-03-20T12:29:19.002Z,17.83
2023-03-20T12:30:41.070Z,16.73
2023-03-20T12:31:56.906Z,16.23
2023-03-20T12:33:07.322Z,17.50
2023-03-20T12:34:22.405Z,17.42
2023-03-20T12:35:33.617Z,17.83
2023-03-20T12:36:43.630Z,17.63
2023-03-20T12:37:45.865Z,18.13
2023-03-20T12:38:48.398Z,17.65
2023-03-20T12:39:54.989Z,17.55
2023-03-20T12:41:24.170Z,19.48
2023-03-20T12:42:46.087Z,19.17
2023-03-20T12:44:11.077Z,18.35
2023-03-20T12:45:39.341Z,18.77
2023-03-20T12:46:59.317Z,18.88
2023-03-20T12:48:30.696Z,19.02
2023-03-20T12:49:36.183Z,18.65
2023-03-20T12:50:42.011Z,19.17
2023-03-20T12:52:07.237Z,19.23
2023-03-20T12:53:36.653Z,19.23
2023-03-20T12:54:56.253Z,17.98
2023-03-20T12:56:45.219Z,19.02
2023-03-20T12:58:55.392Z,19.27
2023-03-20T13:00:11.016Z,18.27
2023-03-20T13:01:21.225Z,19.17
2023-03-20T13:02:44.210Z,19.00
2023-03-20T13:04:01.623Z,19.45
2023-03-20T13:05:33.387Z,19.48
2023-03-20T13:06:56.938Z,18.88
2023-03-20T13:08:34.133Z,18.85
2023-03-20T13:10:04.549Z,19.17
2023-03-20T13:11:22.543Z,18.70
2023-03-20T13:12:47.025Z,18.73
2023-03-20T13:13:57.106Z,18.75
2023-03-20T13:15:32.117Z,18.25
2023-03-20T13:16:34.452Z,18.27
2023-03-20T13:17:47.281Z,19.13
2023-03-20T13:18:59.305Z,18.90
2023-03-20T13:20:22.222Z,18.30
2023-03-20T13:21:49.174Z,19.50
2023-03-20T13:23:12.563Z,19.17
2023-03-20T13:24:37.219Z,20.17
2023-03-20T13:25:54.839Z,18.25
2023-03-20T13:27:08.050Z,19.85
2023-03-20T13:28:23.223Z,19.20
2023-03-20T13:29:54.406Z,19.20
2023-03-20T13:31:15.295Z,18.83
2023-03-20T13:32:28.889Z,19.10
2023-03-20T13:33:54.851Z,18.75
2023-03-20T13:35:02.932Z,18.67
2023-03-20T13:36:08.342Z,19.33
2023-03-20T13:37:27.431Z,18.90
2023-03-20T13:38:43.102Z,19.25
2023-03-20T13:39:49.561Z,19.23
2023-03-20T13:41:02.498Z,19.02
2023-03-20T13:42:11.630Z,18.90
2023-03-20T13:43:29.177Z,19.60
2023-03-20T13:44:34.408Z,18.50
2023-03-20T13:45:43.749Z,18.92
2023-03-20T13:46:59.989Z,18.75
2023-03-20T13:48:13.741Z,19.23
2023-03-20T13:49:39.168Z,19.30
2023-03-20T13:51:06.862Z,18.50
2023-03-20T13:52:20.502Z,18.80
2023-03-20T13:53:33.637Z,18.67
2023-03-20T13:54:50.821Z,19.63
2023-03-20T13:56:14.086Z,19.00
2023-03-20T13:57:22.496Z,18.75
2023-03-20T13:58:41.438Z,19.60
2023-03-20T14:00:01.907Z,19.23
2023-03-20T14:01:38.936Z,19.80
2023-03-20T14:03:06.985Z,18.98
2023-03-20T14:04:16.242Z,18.90
2023-03-20T14:05:23.153Z,20.42
2023-03-20T14:06:31.230Z,19.67
2023-03-20T14:07:37.888Z,19.38
2023-03-20T14:08:48.675Z,19.52
2023-03-20T14:09:54.626Z,19.30
2023-03-20T14:11:12.248Z,19.83
2023-03-20T14:12:14.662Z,19.63
2023-03-20T14:13:19.327Z,19.63
2023-03-20T14:14:26.784Z,19.60
2023-03-20T14:15:35.028Z,19.23
2023-03-20T14:16:37.339Z,19.80
2023-03-20T14:17:44.317Z,18.80
2023-03-20T14:19:04.703Z,19.00
2023-03-20T14:20:20.679Z,19.75
2023-03-20T14:21:24.578Z,20.52
2023-03-20T14:22:35.779Z,19.88
2023-03-20T14:23:41.821Z,20.08
2023-03-20T14:24:52.793Z,20.25
2023-03-20T14:25:56.572Z,20.52
2023-03-20T14:27:01.371Z,19.58
2023-03-20T14:28:13.426Z,21.00
2023-03-20T14:29:15.611Z,20.25
2023-03-20T14:30:30.435Z,19.35
2023-03-20T14:31:38.115Z,21.17
2023-03-20T14:32:57.913Z,21.15
2023-03-20T14:34:09.425Z,20.60
2023-03-20T14:35:21.746Z,21.33
2023-03-20T14:36:29.306Z,20.90
2023-03-20T14:37:50.980Z,20.55
2023-03-20T14:39:05.686Z,20.95
2023-03-20T14:40:17.739Z,19.88
2023-03-20T14:41:28.936Z,21.23
2023-03-20T14:42:42.923Z,20.63
2023-03-20T14:43:51.213Z,20.25
2023-03-20T14:45:32.051Z,20.80
2023-03-20T14:47:07.836Z,21.08
2023-03-20T14:48:27.111Z,20.00
2023-03-20T14:49:48.192Z,21.83
2023-03-20T14:51:07.268Z,20.88
2023-03-20T14:52:15.365Z,20.65
2023-03-20T14:53:24.887Z,21.75
2023-03-20T14:54:30.528Z,20.92
2023-03-20T14:55:48.273Z,21.27
2023-03-20T14:56:52.111Z,21.35
2023-03-20T14:57:57.418Z,21.35
2023-03-20T14:59:04.143Z,21.30
2023-03-20T15:00:20.772Z,20.98
2023-03-20T15:01:23.084Z,21.45
2023-03-20T15:02:28.920Z,20.83
2023-03-20T15:03:32.150Z,20.88
2023-03-20T15:04:40.756Z,21.95
2023-03-20T15:05:44.311Z,20.60
2023-03-20T15:07:05.782Z,21.35
2023-03-20T15:08:11.714Z,21.58
2023-03-20T15:09:14.475Z,20.35
2023-03-20T15:10:19.455Z,22.08
2023-03-20T15:11:23.844Z,20.58
2023-03-20T15:12:35.104Z,22.33
2023-03-20T15:13:39.855Z,22.00
2023-03-20T15:14:56.882Z,21.65
2023-03-20T15:16:09.163Z,21.48
2023-03-20T15:17:23.567Z,21.98
2023-03-20T15:18:27.622Z,22.67
2023-03-20T15:19:30.603Z,23.33
2023-03-20T15:20:36.349Z,22.02
2023-03-20T15:21:41.804Z,21.30
2023-03-20T15:22:57.052Z,21.60